createdAt,value
2023-04-21T00:02:00.800Z,1.30
2023-04-21T00:04:29.760Z,1.17
2023-04-21T00:07:01.398Z,0.90
2023-04-21T00:09:29.658Z,1.03
2023-04-21T00:11:58.082Z,1.00
2023-04-21T00:14:26.298Z,1.10
2023-04-21T00:16:55.940Z,1.00
2023-04-21T00:19:24.196Z,1.40
2023-04-21T00:21:58.547Z,1.00
2023-04-21T00:24:26.791Z,1.20
2023-04-21T00:26:55.063Z,0.90
2023-04-21T00:29:23.329Z,1.13
2023-04-21T00:31:51.639Z,1.00
2023-04-21T00:34:21.254Z,1.10
2023-04-21T00:36:49.480Z,0.80
2023-04-21T00:39:18.092Z,1.07
2023-04-21T00:41:46.588Z,0.90
2023-04-21T00:44:14.812Z,1.07
2023-04-21T00:46:43.363Z,0.80
2023-04-21T00:49:13.222Z,0.80
2023-04-21T00:51:42.879Z,1.00
2023-04-21T00:54:11.143Z,1.10
2023-04-21T00:56:39.375Z,1.27
2023-04-21T00:59:07.672Z,0.80
2023-04-21T01:01:36.557Z,1.10
2023-04-21T01:04:05.292Z,1.00
2023-04-21T01:06:34.088Z,0.93
2023-04-21T01:09:04.752Z,1.17
2023-04-21T01:11:33.068Z,0.53
2023-04-21T01:14:01.324Z,0.90
2023-04-21T01:16:29.735Z,1.07
2023-04-21T01:18:59.068Z,0.90
2023-04-21T01:21:28.764Z,1.50
2023-04-21T01:23:58.409Z,0.87
2023-04-21T01:26:26.660Z,0.90
2023-04-21T01:28:54.878Z,1.20
2023-04-21T01:31:24.156Z,0.90
2023-04-21T01:33:52.465Z,1.13
2023-04-21T01:36:20.674Z,0.93
2023-04-21T01:38:48.906Z,0.90
2023-04-21T01:41:18.604Z,1.07
2023-04-21T01:43:46.922Z,1.20
2023-04-21T01:46:15.483Z,1.20
2023-04-21T01:48:44.168Z,1.07
2023-04-21T01:51:12.678Z,1.30
2023-04-21T01:53:41.440Z,1.03
2023-04-21T01:56:09.833Z,1.00
2023-04-21T01:58:39.525Z,0.90
2023-04-21T02:01:07.878Z,1.10
2023-04-21T02:03:36.645Z,0.93
2023-04-21T02:06:05.177Z,1.03
2023-04-21T02:08:33.481Z,1.17
2023-04-21T02:11:03.284Z,1.00
2023-04-21T02:13:31.587Z,1.20
2023-04-21T02:16:12.745Z,1.47
2023-04-21T02:18:42.415Z,0.63
2023-04-21T02:21:11.217Z,1.37
2023-04-21T02:23:39.479Z,1.10
2023-04-21T02:26:08.162Z,1.23
2023-04-21T02:28:36.673Z,1.03
2023-04-21T02:31:06.458Z,0.83
2023-04-21T02:33:34.926Z,0.90
2023-04-21T02:36:03.284Z,1.10
2023-04-21T02:38:31.622Z,1.43
2023-04-21T02:41:01.342Z,0.97
2023-04-21T02:43:29.701Z,1.37
2023-04-21T02:45:58.083Z,0.77
2023-04-21T02:48:28.396Z,1.20
2023-04-21T02:50:56.719Z,1.43
2023-04-21T02:53:25.014Z,1.30
2023-04-21T02:55:53.326Z,0.97
2023-04-21T02:58:21.661Z,1.20
2023-04-21T03:00:50.048Z,1.27
2023-04-21T03:03:18.723Z,1.23
2023-04-21T03:05:48.742Z,0.73
2023-04-21T03:08:17.049Z,1.00
2023-04-21T03:10:45.706Z,0.77
2023-04-21T03:13:15.169Z,0.87
2023-04-21T03:15:43.439Z,1.50
2023-04-21T03:18:11.947Z,0.90
2023-04-21T03:20:42.094Z,1.03
2023-04-21T03:23:11.889Z,1.00
2023-04-21T03:25:40.548Z,1.03
2023-04-21T03:28:08.815Z,1.17
2023-04-21T03:30:37.110Z,1.30
2023-04-21T03:33:06.407Z,0.90
2023-04-21T03:35:35.410Z,1.10
2023-04-21T03:38:04.125Z,1.17
2023-04-21T03:40:34.085Z,1.17
2023-04-21T03:43:02.656Z,1.00
2023-04-21T03:45:30.957Z,1.03
2023-04-21T03:47:59.604Z,1.20
2023-04-21T03:50:29.120Z,0.80
2023-04-21T03:52:57.451Z,0.70
2023-04-21T03:55:25.929Z,0.90
2023-04-21T03:57:55.612Z,1.10
2023-04-21T04:00:24.067Z,0.97
2023-04-21T04:02:52.495Z,0.90
2023-04-21T04:05:20.890Z,1.13
2023-04-21T04:07:49.333Z,1.13
2023-04-21T04:10:17.892Z,0.77
2023-04-21T04:12:46.965Z,1.37
2023-04-21T04:15:16.819Z,0.87
2023-04-21T04:17:45.174Z,0.87
2023-04-21T04:20:13.955Z,1.30
2023-04-21T04:22:43.155Z,1.10
2023-04-21T04:25:13.164Z,1.47
2023-04-21T04:27:41.491Z,1.30
2023-04-21T04:30:10.537Z,0.93
2023-04-21T04:32:41.611Z,0.73
2023-04-21T04:35:10.560Z,1.40
2023-04-21T04:37:38.852Z,1.20
2023-04-21T04:40:10.097Z,0.97
2023-04-21T04:42:39.623Z,1.03
2023-04-21T04:45:08.591Z,1.20
2023-04-21T04:47:37.105Z,0.80
2023-04-21T04:50:07.336Z,1.13
2023-04-21T04:52:35.729Z,0.90
2023-04-21T04:55:04.226Z,1.10
2023-04-21T04:57:32.660Z,1.23
2023-04-21T05:00:01.224Z,1.30
2023-04-21T05:02:29.654Z,1.10
2023-04-21T05:04:58.292Z,1.07
2023-04-21T05:07:28.143Z,1.10
2023-04-21T05:09:56.623Z,0.97
2023-04-21T05:12:25.026Z,1.00
2023-04-21T05:14:53.376Z,1.47
2023-04-21T05:17:21.849Z,1.10
2023-04-21T05:19:50.172Z,1.33
2023-04-21T05:22:18.666Z,1.63
2023-04-21T05:24:48.445Z,0.90
2023-04-21T05:27:16.801Z,1.43
2023-04-21T05:29:45.442Z,1.47
2023-04-21T05:32:13.902Z,1.37
2023-04-21T05:34:42.332Z,1.43
2023-04-21T05:37:12.835Z,1.40
2023-04-21T05:39:41.215Z,1.67
2023-04-21T05:42:12.545Z,1.50
2023-04-21T05:44:40.853Z,0.77
2023-04-21T05:47:09.193Z,1.20
2023-04-21T05:49:37.456Z,1.50
2023-04-21T05:52:06.150Z,1.20
2023-04-21T05:54:34.726Z,1.53
2023-04-21T05:57:03.095Z,1.30
2023-04-21T05:59:32.847Z,1.00
2023-04-21T06:02:01.244Z,1.40
2023-04-21T06:04:33.746Z,1.17
2023-04-21T06:07:06.492Z,1.03
2023-04-21T06:09:35.012Z,1.10
2023-04-21T06:12:03.397Z,1.00
2023-04-21T06:14:33.108Z,1.00
2023-04-21T06:17:01.435Z,1.73
2023-04-21T06:19:29.763Z,1.30
2023-04-21T06:21:58.456Z,1.10
2023-04-21T06:24:26.878Z,1.03
2023-04-21T06:26:55.276Z,1.10
2023-04-21T06:29:23.770Z,1.20
2023-04-21T06:31:53.489Z,1.20
2023-04-21T06:34:22.058Z,1.37
2023-04-21T06:36:50.797Z,1.13
2023-04-21T06:39:19.145Z,1.03
2023-04-21T06:41:47.460Z,1.47
2023-04-21T06:44:15.857Z,1.30
2023-04-21T06:46:44.395Z,1.10
2023-04-21T06:49:14.123Z,1.57
2023-04-21T06:51:42.697Z,1.37
2023-04-21T06:54:10.967Z,1.53
2023-04-21T06:56:39.275Z,1.83
2023-04-21T06:59:08.434Z,1.73
2023-04-21T07:01:37.046Z,1.13
2023-04-21T07:04:07.020Z,1.47
2023-04-21T07:06:36.859Z,1.40
2023-04-21T07:09:05.754Z,1.37
2023-04-21T07:11:34.389Z,1.83
2023-04-21T07:14:03.218Z,1.73
2023-04-21T07:16:31.673Z,1.73
2023-04-21T07:19:00.178Z,1.77
2023-04-21T07:21:30.348Z,1.93
2023-04-21T07:24:00.099Z,2.43
2023-04-21T07:26:28.482Z,2.17
2023-04-21T07:28:58.653Z,1.87
2023-04-21T07:31:27.278Z,1.67
2023-04-21T07:33:55.632Z,1.50
2023-04-21T07:36:24.725Z,2.17
2023-04-21T07:38:53.017Z,2.20
2023-04-21T07:41:22.962Z,2.13
2023-04-21T07:43:53.252Z,1.70
2023-04-21T07:46:24.363Z,1.37
2023-04-21T07:48:52.718Z,2.00
2023-04-21T07:51:21.465Z,1.93
2023-04-21T07:53:49.812Z,2.17
2023-04-21T07:56:18.137Z,2.47
2023-04-21T07:58:47.865Z,2.37
2023-04-21T08:01:16.178Z,2.20
2023-04-21T08:03:44.796Z,2.13
2023-04-21T08:06:13.268Z,2.77
2023-04-21T08:08:41.674Z,2.13
2023-04-21T08:11:11.052Z,2.50
2023-04-21T08:13:39.640Z,2.33
2023-04-21T08:16:09.473Z,2.73
2023-04-21T08:18:37.820Z,1.97
2023-04-21T08:21:06.260Z,2.67
2023-04-21T08:23:34.550Z,2.97
2023-04-21T08:26:03.100Z,2.53
2023-04-21T08:28:31.588Z,2.83
2023-04-21T08:31:00.500Z,3.17
2023-04-21T08:33:30.211Z,2.33
2023-04-21T08:36:05.418Z,2.63
2023-04-21T08:38:36.428Z,2.43
2023-04-21T08:41:04.714Z,2.40
2023-04-21T08:43:33.004Z,3.33
2023-04-21T08:46:01.623Z,2.30
2023-04-21T08:48:31.450Z,2.57
2023-04-21T08:50:59.859Z,2.60
2023-04-21T08:53:28.176Z,2.60
2023-04-21T08:56:09.906Z,2.53
2023-04-21T08:58:40.325Z,2.73
2023-04-21T09:01:08.686Z,3.33
2023-04-21T09:03:38.973Z,2.87
2023-04-21T09:06:08.872Z,2.67
2023-04-21T09:08:39.842Z,2.97
2023-04-21T09:11:08.500Z,2.93
2023-04-21T09:13:37.174Z,2.70
2023-04-21T09:16:10.918Z,3.33
2023-04-21T09:18:40.705Z,2.93
2023-04-21T09:21:09.987Z,2.90
2023-04-21T09:23:42.138Z,2.37
2023-04-21T09:26:11.299Z,2.90
2023-04-21T09:28:42.343Z,3.07
2023-04-21T09:31:15.769Z,2.40
2023-04-21T09:33:57.044Z,2.50
2023-04-21T09:36:26.227Z,3.17
2023-04-21T09:39:24.475Z,3.13
2023-04-21T09:41:47.035Z,2.97
2023-04-21T09:44:17.748Z,3.13
2023-04-21T09:46:47.191Z,2.90
2023-04-21T09:49:17.198Z,3.27
2023-04-21T09:54:29.086Z,3.10
2023-04-21T09:57:00.255Z,2.73
2023-04-21T09:59:29.766Z,2.67
2023-04-21T10:01:58.176Z,2.40
2023-04-21T10:04:28.316Z,1.83
2023-04-21T10:06:57.424Z,2.80
2023-04-21T10:09:25.827Z,3.03
2023-04-21T10:11:55.536Z,2.23
2023-04-21T10:14:23.921Z,2.27
2023-04-21T10:16:58.010Z,2.30
2023-04-21T10:19:28.116Z,2.37
2023-04-21T10:21:57.669Z,2.60
2023-04-21T10:24:26.894Z,2.23
2023-04-21T10:26:55.568Z,3.17
2023-04-21T10:29:40.246Z,2.60
2023-04-21T10:32:18.042Z,2.23
2023-04-21T10:34:47.760Z,2.00
2023-04-21T10:37:19.864Z,2.50
2023-04-21T10:39:52.983Z,2.53
2023-04-21T10:42:23.032Z,1.93
2023-04-21T10:44:54.946Z,2.73
2023-04-21T10:47:27.524Z,2.57
2023-04-21T10:49:57.303Z,2.40
2023-04-21T10:52:31.963Z,2.33
2023-04-21T10:55:07.014Z,2.20
2023-04-21T10:57:36.290Z,2.20
2023-04-21T11:00:06.947Z,1.93
2023-04-21T11:02:38.564Z,2.10
2023-04-21T11:05:10.722Z,2.27
2023-04-21T11:07:39.075Z,3.10
2023-04-21T11:10:07.905Z,2.10
2023-04-21T11:12:36.526Z,2.13
2023-04-21T11:15:05.479Z,2.03
2023-04-21T11:17:33.969Z,2.00
2023-04-21T11:20:03.633Z,2.03
2023-04-21T11:22:33.451Z,2.10
2023-04-21T11:25:03.114Z,2.17
2023-04-21T11:27:31.897Z,1.93
2023-04-21T11:30:00.558Z,1.97
2023-04-21T11:32:29.588Z,1.60
2023-04-21T11:34:57.970Z,1.70
2023-04-21T11:37:27.872Z,1.47
2023-04-21T11:40:01.219Z,1.47
2023-04-21T11:42:29.646Z,1.77
2023-04-21T11:44:58.456Z,1.97
2023-04-21T11:47:27.717Z,2.07
2023-04-21T11:49:56.804Z,1.77
2023-04-21T11:52:25.627Z,1.90
2023-04-21T11:54:57.904Z,1.60
2023-04-21T11:57:28.395Z,1.80
2023-04-21T11:59:56.987Z,1.60
2023-04-21T12:02:26.795Z,2.07
2023-04-21T12:05:02.449Z,1.70
2023-04-21T12:07:31.631Z,1.83
2023-04-21T12:10:00.320Z,1.80
2023-04-21T12:12:30.070Z,1.80
2023-04-21T12:14:59.383Z,1.90
2023-04-21T12:17:28.847Z,1.77
2023-04-21T12:19:57.127Z,1.50
2023-04-21T12:22:25.426Z,1.27
2023-04-21T12:24:53.979Z,1.90
2023-04-21T12:27:22.607Z,1.53
2023-04-21T12:29:52.378Z,2.07
2023-04-21T12:32:21.067Z,1.50
2023-04-21T12:34:49.869Z,1.90
2023-04-21T12:37:18.142Z,1.60
2023-04-21T12:39:46.508Z,1.40
2023-04-21T12:42:14.934Z,1.70
2023-04-21T12:44:43.247Z,1.27
2023-04-21T12:47:13.099Z,1.40
2023-04-21T12:49:41.482Z,1.50
2023-04-21T12:52:10.022Z,1.33
2023-04-21T12:54:38.320Z,1.37
2023-04-21T12:57:06.938Z,1.40
2023-04-21T12:59:35.571Z,1.87
2023-04-21T13:02:04.028Z,1.63
2023-04-21T13:04:34.060Z,1.60
2023-04-21T13:07:02.645Z,1.40
2023-04-21T13:09:31.968Z,1.50
2023-04-21T13:12:01.978Z,1.20
2023-04-21T13:14:30.417Z,1.40
2023-04-21T13:16:58.851Z,1.43
2023-04-21T13:19:28.635Z,1.10
2023-04-21T13:21:58.543Z,1.00
2023-04-21T13:24:27.109Z,1.33
2023-04-21T13:26:56.144Z,1.10
2023-04-21T13:29:24.468Z,1.43
2023-04-21T13:31:52.768Z,1.47
2023-04-21T13:34:21.709Z,1.23
2023-04-21T13:36:50.905Z,1.57
2023-04-21T13:39:21.409Z,1.20
2023-04-21T13:41:50.622Z,1.63
2023-04-21T13:44:21.477Z,1.60
2023-04-21T13:46:52.300Z,1.53
2023-04-21T13:49:20.980Z,1.10
2023-04-21T13:51:49.372Z,1.30
2023-04-21T13:54:17.714Z,1.57
2023-04-21T13:56:47.456Z,1.60
2023-04-21T13:59:16.588Z,0.90
2023-04-21T14:01:44.932Z,1.20
2023-04-21T14:04:13.853Z,1.30
2023-04-21T14:06:42.268Z,1.60
2023-04-21T14:09:10.928Z,1.30
2023-04-21T14:11:39.567Z,1.30
2023-04-21T14:14:10.305Z,1.00
2023-04-21T14:16:39.166Z,1.30
2023-04-21T14:19:07.803Z,1.57
2023-04-21T14:21:36.189Z,1.23
2023-04-21T14:24:04.577Z,1.10
2023-04-21T14:26:33.116Z,1.50
2023-04-21T14:29:01.642Z,1.80
2023-04-21T14:31:31.403Z,1.43
2023-04-21T14:33:59.934Z,1.30
2023-04-21T14:36:28.289Z,1.23
2023-04-21T14:38:56.574Z,1.63
2023-04-21T14:41:25.127Z,1.30
2023-04-21T14:43:56.775Z,1.27
2023-04-21T14:46:25.424Z,1.33
2023-04-21T14:48:55.435Z,1.67
2023-04-21T14:51:23.929Z,1.50
2023-04-21T14:53:52.496Z,1.43
2023-04-21T14:56:20.818Z,1.40
2023-04-21T14:58:49.946Z,1.47
2023-04-21T15:01:18.352Z,1.60
2023-04-21T15:03:46.905Z,1.57
2023-04-21T15:06:17.304Z,1.57
2023-04-21T15:08:45.953Z,1.43
2023-04-21T15:11:14.283Z,1.30
2023-04-21T15:13:42.657Z,1.77
2023-04-21T15:16:10.980Z,1.60
2023-04-21T15:18:39.340Z,1.60
2023-04-21T15:21:07.888Z,1.40
2023-04-21T15:23:38.790Z,1.33
2023-04-21T15:26:07.247Z,1.43
2023-04-21T15:28:36.079Z,1.57
2023-04-21T15:31:04.457Z,1.63
2023-04-21T15:33:32.883Z,1.53
2023-04-21T15:36:01.208Z,1.57
2023-04-21T15:38:29.517Z,1.53
2023-04-21T15:41:00.807Z,1.80
2023-04-21T15:43:29.788Z,1.70
2023-04-21T15:45:58.447Z,1.50
2023-04-21T15:48:26.908Z,1.53
2023-04-21T15:50:55.266Z,1.87
2023-04-21T15:53:23.918Z,1.20
2023-04-21T15:55:52.483Z,1.70
2023-04-21T15:58:22.505Z,1.03
2023-04-21T16:00:51.118Z,1.00
2023-04-21T16:03:19.591Z,1.20
2023-04-21T16:05:48.129Z,2.03
2023-04-21T16:08:16.749Z,1.77
2023-04-21T16:10:45.116Z,1.57
2023-04-21T16:13:13.630Z,1.93
2023-04-21T16:15:43.509Z,1.73
2023-04-21T16:18:12.128Z,1.77
2023-04-21T16:20:41.195Z,1.63
2023-04-21T16:23:09.621Z,2.00
2023-04-21T16:25:38.030Z,2.10
2023-04-21T16:28:07.397Z,1.53
2023-04-21T16:30:36.063Z,1.90
2023-04-21T16:33:05.928Z,1.70
2023-04-21T16:35:34.403Z,1.40
2023-04-21T16:38:03.157Z,1.53
2023-04-21T16:40:31.719Z,2.07
2023-04-21T16:43:00.178Z,1.90
2023-04-21T16:45:29.793Z,1.70
2023-04-21T16:47:58.660Z,1.50
2023-04-21T16:50:28.715Z,1.60
2023-04-21T16:52:58.019Z,2.07
2023-04-21T16:55:26.472Z,2.43
2023-04-21T16:57:54.964Z,1.60
2023-04-21T17:00:23.433Z,1.73
2023-04-21T17:02:52.010Z,1.90
2023-04-21T17:05:20.658Z,1.80
2023-04-21T17:07:50.400Z,1.33
2023-04-21T17:10:19.000Z,2.00
2023-04-21T17:12:47.368Z,1.97
2023-04-21T17:15:16.353Z,2.07
2023-04-21T17:17:45.108Z,2.00
2023-04-21T17:20:14.173Z,1.63
2023-04-21T17:22:42.696Z,1.90
2023-04-21T17:25:12.738Z,1.40
2023-04-21T17:27:41.762Z,3.07
2023-04-21T17:30:10.473Z,3.07
2023-04-21T17:32:40.698Z,2.70
2023-04-21T17:35:09.541Z,2.30
2023-04-21T17:37:37.836Z,2.80
2023-04-21T17:40:07.296Z,2.63
2023-04-21T17:42:37.086Z,2.53
2023-04-21T17:45:07.559Z,3.00
2023-04-21T17:47:36.331Z,2.43
2023-04-21T17:50:04.783Z,2.90
2023-04-21T17:52:33.050Z,2.70
2023-04-21T17:55:01.370Z,2.70
2023-04-21T17:57:30.112Z,1.97
2023-04-21T17:59:59.779Z,2.33
2023-04-21T18:02:28.143Z,3.13
2023-04-21T18:04:56.690Z,2.40
2023-04-21T18:07:25.128Z,2.57
2023-04-21T18:09:53.593Z,3.10
2023-04-21T18:12:21.964Z,2.20
2023-04-21T18:14:50.304Z,2.90
2023-04-21T18:17:20.040Z,2.20
2023-04-21T18:19:48.462Z,2.67
2023-04-21T18:22:16.947Z,2.27
2023-04-21T18:24:45.260Z,1.90
2023-04-21T18:27:13.979Z,2.20
2023-04-21T18:29:42.298Z,2.00
2023-04-21T18:32:10.696Z,2.23
2023-04-21T18:34:41.406Z,2.57
2023-04-21T18:37:09.839Z,2.00
2023-04-21T18:39:38.312Z,1.57
2023-04-21T18:42:06.692Z,1.90
2023-04-21T18:44:35.178Z,2.57
2023-04-21T18:47:03.730Z,2.50
2023-04-21T18:49:32.448Z,2.30
2023-04-21T18:52:02.177Z,2.10
2023-04-21T18:54:30.778Z,2.00
2023-04-21T18:56:59.322Z,1.90
2023-04-21T18:59:27.648Z,1.90
2023-04-21T19:01:56.042Z,2.13
2023-04-21T19:04:24.642Z,1.97
2023-04-21T19:06:53.229Z,1.70
2023-04-21T19:09:23.322Z,1.97
2023-04-21T19:11:51.667Z,1.67
2023-04-21T19:14:19.925Z,2.27
2023-04-21T19:16:48.905Z,2.00
2023-04-21T19:19:17.969Z,2.20
2023-04-21T19:21:46.507Z,1.97
2023-04-21T19:24:14.779Z,2.57
2023-04-21T19:26:44.522Z,2.03
2023-04-21T19:29:14.921Z,2.03
2023-04-21T19:31:43.360Z,2.27
2023-04-21T19:34:11.830Z,2.40
2023-04-21T19:36:41.608Z,1.53
2023-04-21T19:39:10.290Z,1.80
2023-04-21T19:41:38.655Z,2.20
2023-04-21T19:44:08.341Z,2.77
2023-04-21T19:46:37.114Z,2.50
2023-04-21T19:49:05.810Z,2.60
2023-04-21T19:51:34.101Z,2.03
2023-04-21T19:54:11.387Z,2.30
2023-04-21T19:56:40.801Z,2.33
2023-04-21T19:59:10.535Z,2.27
2023-04-21T20:01:38.889Z,2.13
2023-04-21T20:04:07.895Z,2.20
2023-04-21T20:06:38.428Z,2.23
2023-04-21T20:09:06.737Z,1.90
2023-04-21T20:11:35.124Z,2.23
2023-04-21T20:14:03.613Z,2.23
2023-04-21T20:16:34.247Z,2.37
2023-04-21T20:19:02.865Z,2.22
2023-04-21T20:21:32.391Z,2.00
2023-04-21T20:24:00.832Z,2.10
2023-04-21T20:26:29.308Z,2.13
2023-04-21T20:28:57.660Z,1.73
2023-04-21T20:31:26.027Z,2.23
2023-04-21T20:33:55.718Z,1.80
2023-04-21T20:36:24.097Z,2.30
2023-04-21T20:38:52.776Z,2.10
2023-04-21T20:41:23.285Z,1.80
2023-04-21T20:43:52.095Z,1.90
2023-04-21T20:46:20.672Z,2.20
2023-04-21T20:48:48.968Z,2.10
2023-04-21T20:51:18.711Z,2.37
2023-04-21T20:53:47.058Z,2.20
2023-04-21T20:56:15.507Z,1.90
2023-04-21T20:58:43.853Z,2.00
2023-04-21T21:01:13.609Z,1.70
2023-04-21T21:03:42.372Z,2.90
2023-04-21T21:06:10.925Z,1.47
2023-04-21T21:08:41.232Z,1.97
2023-04-21T21:11:09.592Z,1.47
2023-04-21T21:13:37.961Z,2.20
2023-04-21T21:16:06.771Z,2.07
2023-04-21T21:18:36.096Z,2.10
2023-04-21T21:21:06.695Z,1.80
2023-04-21T21:23:35.354Z,1.73
2023-04-21T21:26:05.344Z,1.70
2023-04-21T21:28:33.631Z,2.10
2023-04-21T21:31:02.226Z,1.73
2023-04-21T21:33:30.543Z,1.93
2023-04-21T21:35:59.778Z,1.87
2023-04-21T21:38:28.381Z,1.80
2023-04-21T21:40:56.703Z,2.17
2023-04-21T21:43:26.493Z,1.67
2023-04-21T21:45:55.392Z,1.77
2023-04-21T21:48:23.885Z,1.27
2023-04-21T21:50:52.292Z,1.70
2023-04-21T21:53:20.652Z,1.20
2023-04-21T21:55:49.043Z,2.30
2023-04-21T21:58:17.335Z,2.00
2023-04-21T22:00:51.842Z,1.50
2023-04-21T22:03:20.363Z,2.20
2023-04-21T22:05:48.963Z,1.53
2023-04-21T22:08:17.396Z,1.30
2023-04-21T22:10:45.772Z,1.50
2023-04-21T22:13:14.137Z,1.50
2023-04-21T22:15:42.799Z,1.40
2023-04-21T22:18:12.520Z,1.40
2023-04-21T22:20:41.004Z,1.93
2023-04-21T22:23:09.360Z,1.47
2023-04-21T22:25:37.672Z,1.87
2023-04-21T22:28:06.021Z,1.50
2023-04-21T22:30:34.395Z,1.40
2023-04-21T22:33:02.718Z,1.40
2023-04-21T22:35:32.761Z,1.20
2023-04-21T22:38:01.120Z,1.60
2023-04-21T22:40:29.575Z,1.60
2023-04-21T22:42:57.906Z,1.77
2023-04-21T22:45:26.628Z,1.53
2023-04-21T22:47:55.908Z,1.43
2023-04-21T22:50:24.743Z,1.27
2023-04-21T22:52:54.777Z,1.30
2023-04-21T22:55:23.091Z,1.30
2023-04-21T22:57:51.395Z,1.20
2023-04-21T23:00:19.909Z,1.50
2023-04-21T23:02:48.472Z,1.10
2023-04-21T23:05:17.557Z,1.67
2023-04-21T23:07:46.312Z,1.10
2023-04-21T23:10:16.137Z,1.00
2023-04-21T23:12:44.448Z,1.10
2023-04-21T23:15:13.249Z,1.50
2023-04-21T23:17:42.724Z,1.60
2023-04-21T23:20:11.614Z,0.97
2023-04-21T23:22:39.914Z,1.37
2023-04-21T23:25:08.961Z,1.70
2023-04-21T23:27:38.673Z,1.37
2023-04-21T23:30:07.636Z,1.43
2023-04-21T23:32:36.571Z,1.43
2023-04-21T23:35:05.394Z,1.30
2023-04-21T23:37:34.441Z,1.17
2023-04-21T23:40:02.899Z,1.10
2023-04-21T23:42:31.480Z,1.27
2023-04-21T23:45:02.207Z,0.73
2023-04-21T23:47:30.674Z,1.50
2023-04-21T23:49:59.171Z,1.10
2023-04-21T23:52:27.749Z,1.00
2023-04-21T23:54:56.136Z,1.17
2023-04-21T23:57:24.952Z,1.30
2023-04-21T23:59:53.320Z,1.63
